Dost 1 — TCPI — position and weather

sailwx.info

Track history (hours):
 
Tides and Currents Weather Stations Pressure Air Temp Water Temp Dewpoint Dewpoint Depression Visibility Wind Speed Wind Dir Waves Ship Positions

Dost 1

Last reported at 2015-Jul-18 09:24 UTC. Time now 2015-Aug-04 03:21 UTC.
Position N 40°60' E 028°60'.
Warning: this ship's position is 16 days out of date.

Length 115 m; draft 4.2 m.

Type: Cargo ship. MMSI: 271000303.

Date/timePositionNaut miles runAvg speedWind from/ knotsBaromVisibWave heightAir tempDewpointWater temp
2015-Jul-18 09:24N 40°60' E 028°60'4 5.1
2015-Jul-18 08:33N 40°56' E 028°56'2 1.5
2015-Jul-18 07:07N 40°58' E 028°54'0 0.0
2015-Jul-18 06:25N 40°58' E 028°54'0 0.0
2015-Jul-18 04:24N 40°58' E 028°54'0 0.0
2015-Jul-18 03:30N 40°58' E 028°54'0 0.0
2015-Jul-18 02:17N 40°58' E 028°54'0 0.0
2015-Jul-18 00:25N 40°58' E 028°54'0 0.0
2015-Jul-17 23:25N 40°58' E 028°54'0 0.0
2015-Jul-17 22:18N 40°58' E 028°54'0 0.0
2015-Jul-17 21:24N 40°58' E 028°54'0 0.0
2015-Jul-17 20:24N 40°58' E 028°54'0 0.0
2015-Jul-17 19:29N 40°58' E 028°54'0 0.0
2015-Jul-17 18:29N 40°58' E 028°54'0 0.0
2015-Jul-17 17:28N 40°58' E 028°54'0 0.0
2015-Jul-17 16:16N 40°58' E 028°54'0 0.0
2015-Jul-17 15:34N 40°58' E 028°54'0 0.0
2015-Jul-17 14:33N 40°58' E 028°54'0 0.0
2015-Jul-17 13:33N 40°58' E 028°54'0 0.0
2015-Jul-17 12:14N 40°58' E 028°54'0 0.0
2015-Jul-17 10:25N 40°58' E 028°54'0 0.0
2015-Jul-17 09:31N 40°58' E 028°54'0 0.0
2015-Jul-17 07:30N 40°58' E 028°54'0 0.0
2015-Jul-17 05:23N 40°58' E 028°54'0 0.0
2015-Jul-17 03:28N 40°58' E 028°54'0 0.0
2015-Jul-17 01:33N 40°58' E 028°54'0 0.0
2015-Jul-17 00:27N 40°58' E 028°54'0 0.0
2015-Jul-16 23:33N 40°58' E 028°54'0 0.0
2015-Jul-16 21:32N 40°58' E 028°54'0 0.0
2015-Jul-16 19:28N 40°58' E 028°54'0 0.0
2015-Jul-16 18:33N 40°58' E 028°54'0 0.0
2015-Jul-16 17:27N 40°58' E 028°54'0 0.0
2015-Jul-16 16:33N 40°58' E 028°54'0 0.0
2015-Jul-16 14:20N 40°58' E 028°54'0 0.0
2015-Jul-16 13:31N 40°58' E 028°54'0 0.0
2015-Jul-16 12:07N 40°58' E 028°54'0 0.0
2015-Jul-16 11:24N 40°58' E 028°54'0 0.0
2015-Jul-16 10:18N 40°58' E 028°54'0 0.0
2015-Jul-16 09:17N 40°58' E 028°54'0 0.0
2015-Jul-16 08:29N 40°58' E 028°54'0 0.0
2015-Jul-16 07:29N 40°58' E 028°54'0 0.1
2015-Jul-16 06:22N 40°58' E 028°54'0 0.0
2015-Jul-16 05:31N 40°58' E 028°54'8 8.5
2015-Jul-16 04:33N 40°51' E 029°01'1212.4
2015-Jul-16 03:33N 40°46' E 029°16'1111.0
2015-Jul-16 02:32N 40°45' E 029°30'  
2015-Jul-13 07:05N 41°16' E 029°08'  
2015-Jul-10 12:10N 41°18' E 036°21'140 8.0
2015-Jul-09 18:32N 43°31' E 037°18'5510.9
2015-Jul-09 13:28N 44°24' E 037°39'1010.7
2015-Jul-09 12:33N 44°34' E 037°44'9 9.1
2015-Jul-09 11:33N 44°42' E 037°49'2 2.2
2015-Jul-09 10:33N 44°44' E 037°48'0 0.0
2015-Jul-09 09:33N 44°44' E 037°48'0 0.0
2015-Jul-09 08:32N 44°44' E 037°48'0 0.0
2015-Jul-09 07:32N 44°44' E 037°48'0 0.0
2015-Jul-09 06:31N 44°44' E 037°48'0 0.0
2015-Jul-09 05:31N 44°44' E 037°48'0 0.0
2015-Jul-09 04:34N 44°44' E 037°48'0 0.0
2015-Jul-09 03:33N 44°44' E 037°48'0 0.0
2015-Jul-09 02:33N 44°44' E 037°48'0 0.0
2015-Jul-09 01:31N 44°44' E 037°48'0 0.0
2015-Jul-09 00:33N 44°44' E 037°48'0 0.0
2015-Jul-08 23:33N 44°44' E 037°48'0 0.0
2015-Jul-08 22:32N 44°44' E 037°48'0 0.0
2015-Jul-08 21:32N 44°44' E 037°48'0 0.0
2015-Jul-08 20:31N 44°44' E 037°48'0 0.0
2015-Jul-08 19:31N 44°44' E 037°48'0 0.0
2015-Jul-08 18:31N 44°44' E 037°48'0 0.0
2015-Jul-08 17:33N 44°44' E 037°48'0 0.0
2015-Jul-08 16:30N 44°44' E 037°48'0 0.0
2015-Jul-08 15:32N 44°44' E 037°48'0 0.0
2015-Jul-08 14:32N 44°44' E 037°48'0 0.0
2015-Jul-08 13:31N 44°44' E 037°48'0 0.0
2015-Jul-08 12:31N 44°44' E 037°48'0 0.0
2015-Jul-08 11:31N 44°44' E 037°48'0 0.0
2015-Jul-08 10:33N 44°44' E 037°48'0 0.0
2015-Jul-08 09:33N 44°44' E 037°48'  
Track history (hours):
 
Tides and Currents Weather Stations Pressure Air Temp Water Temp Dewpoint Dewpoint Depression Visibility Wind Speed Wind Dir Waves Ship Positions

Dost 1

Last reported at 2015-Jul-18 09:24 UTC. Time now 2015-Aug-04 03:21 UTC.
Position N 40°60' E 028°60'.
Warning: this ship's position is 16 days out of date.

Length 115 m; draft 4.2 m.

Type: Cargo ship. MMSI: 271000303.

Date/timePositionNaut miles runAvg speedWind from/ knotsBaromVisibWave heightAir tempDewpointWater temp
2015-Jul-18 09:24N 40°60' E 028°60'4 5.1
2015-Jul-18 08:33N 40°56' E 028°56'2 1.5
2015-Jul-18 07:07N 40°58' E 028°54'0 0.0
2015-Jul-18 06:25N 40°58' E 028°54'0 0.0
2015-Jul-18 04:24N 40°58' E 028°54'0 0.0
2015-Jul-18 03:30N 40°58' E 028°54'0 0.0
2015-Jul-18 02:17N 40°58' E 028°54'0 0.0
2015-Jul-18 00:25N 40°58' E 028°54'0 0.0
2015-Jul-17 23:25N 40°58' E 028°54'0 0.0
2015-Jul-17 22:18N 40°58' E 028°54'0 0.0
2015-Jul-17 21:24N 40°58' E 028°54'0 0.0
2015-Jul-17 20:24N 40°58' E 028°54'0 0.0
2015-Jul-17 19:29N 40°58' E 028°54'0 0.0
2015-Jul-17 18:29N 40°58' E 028°54'0 0.0
2015-Jul-17 17:28N 40°58' E 028°54'0 0.0
2015-Jul-17 16:16N 40°58' E 028°54'0 0.0
2015-Jul-17 15:34N 40°58' E 028°54'0 0.0
2015-Jul-17 14:33N 40°58' E 028°54'0 0.0
2015-Jul-17 13:33N 40°58' E 028°54'0 0.0
2015-Jul-17 12:14N 40°58' E 028°54'0 0.0
2015-Jul-17 10:25N 40°58' E 028°54'0 0.0
2015-Jul-17 09:31N 40°58' E 028°54'0 0.0
2015-Jul-17 07:30N 40°58' E 028°54'0 0.0
2015-Jul-17 05:23N 40°58' E 028°54'0 0.0
2015-Jul-17 03:28N 40°58' E 028°54'0 0.0
2015-Jul-17 01:33N 40°58' E 028°54'0 0.0
2015-Jul-17 00:27N 40°58' E 028°54'0 0.0
2015-Jul-16 23:33N 40°58' E 028°54'0 0.0
2015-Jul-16 21:32N 40°58' E 028°54'0 0.0
2015-Jul-16 19:28N 40°58' E 028°54'0 0.0
2015-Jul-16 18:33N 40°58' E 028°54'0 0.0
2015-Jul-16 17:27N 40°58' E 028°54'0 0.0
2015-Jul-16 16:33N 40°58' E 028°54'0 0.0
2015-Jul-16 14:20N 40°58' E 028°54'0 0.0
2015-Jul-16 13:31N 40°58' E 028°54'0 0.0
2015-Jul-16 12:07N 40°58' E 028°54'0 0.0
2015-Jul-16 11:24N 40°58' E 028°54'0 0.0
2015-Jul-16 10:18N 40°58' E 028°54'0 0.0
2015-Jul-16 09:17N 40°58' E 028°54'0 0.0
2015-Jul-16 08:29N 40°58' E 028°54'0 0.0
2015-Jul-16 07:29N 40°58' E 028°54'0 0.1
2015-Jul-16 06:22N 40°58' E 028°54'0 0.0
2015-Jul-16 05:31N 40°58' E 028°54'8 8.5
2015-Jul-16 04:33N 40°51' E 029°01'1212.4
2015-Jul-16 03:33N 40°46' E 029°16'1111.0
2015-Jul-16 02:32N 40°45' E 029°30'  
2015-Jul-13 07:05N 41°16' E 029°08'  
2015-Jul-10 12:10N 41°18' E 036°21'140 8.0
2015-Jul-09 18:32N 43°31' E 037°18'5510.9
2015-Jul-09 13:28N 44°24' E 037°39'1010.7
2015-Jul-09 12:33N 44°34' E 037°44'9 9.1
2015-Jul-09 11:33N 44°42' E 037°49'2 2.2
2015-Jul-09 10:33N 44°44' E 037°48'0 0.0
2015-Jul-09 09:33N 44°44' E 037°48'0 0.0
2015-Jul-09 08:32N 44°44' E 037°48'0 0.0
2015-Jul-09 07:32N 44°44' E 037°48'0 0.0
2015-Jul-09 06:31N 44°44' E 037°48'0 0.0
2015-Jul-09 05:31N 44°44' E 037°48'0 0.0
2015-Jul-09 04:34N 44°44' E 037°48'0 0.0
2015-Jul-09 03:33N 44°44' E 037°48'0 0.0
2015-Jul-09 02:33N 44°44' E 037°48'0 0.0
2015-Jul-09 01:31N 44°44' E 037°48'0 0.0
2015-Jul-09 00:33N 44°44' E 037°48'0 0.0
2015-Jul-08 23:33N 44°44' E 037°48'0 0.0
2015-Jul-08 22:32N 44°44' E 037°48'0 0.0
2015-Jul-08 21:32N 44°44' E 037°48'0 0.0
2015-Jul-08 20:31N 44°44' E 037°48'0 0.0
2015-Jul-08 19:31N 44°44' E 037°48'0 0.0
2015-Jul-08 18:31N 44°44' E 037°48'0 0.0
2015-Jul-08 17:33N 44°44' E 037°48'0 0.0
2015-Jul-08 16:30N 44°44' E 037°48'0 0.0
2015-Jul-08 15:32N 44°44' E 037°48'0 0.0
2015-Jul-08 14:32N 44°44' E 037°48'0 0.0
2015-Jul-08 13:31N 44°44' E 037°48'0 0.0
2015-Jul-08 12:31N 44°44' E 037°48'0 0.0
2015-Jul-08 11:31N 44°44' E 037°48'0 0.0
2015-Jul-08 10:33N 44°44' E 037°48'0 0.0
2015-Jul-08 09:33N 44°44' E 037°48'  

Dump ship's entire track history